Time;durP1;ratioP1;P1;durP2;ratioP2;P2;SDS_P1;SDS_P2;PMS_P1;PMS_P2;Temp;Humidity;BMP_temperature;BMP_pressure;BME280_temperature;BME280_humidity;BME280_pressure;Samples;Min_cycle;Max_cycle;Signal;HPM_P1;HPM_P2
2022/01/04 00:01:58;;;;;;;3.53;1.57;;;5.60;99.90;;;;;;5032569;28;20460;-59
2022/01/04 00:04:26;;;;;;;2.03;1.67;;;5.60;99.90;;;;;;5024399;28;20497;-59
2022/01/04 00:06:53;;;;;;;2.13;1.37;;;5.60;99.90;;;;;;5008718;28;20587;-59
2022/01/04 00:09:21;;;;;;;2.50;1.77;;;5.60;99.90;;;;;;5013721;28;20483;-59
2022/01/04 00:13:20;;;;;;;4.00;1.57;;;5.60;99.90;;;;;;5010155;28;20511;-59
2022/01/04 00:14:43;;;;;;;3.67;1.47;;;5.60;99.90;;;;;;5002851;28;20547;-60
2022/01/04 00:17:10;;;;;;;6.10;2.20;;;5.60;99.90;;;;;;5015229;28;20487;-60
2022/01/04 00:19:37;;;;;;;3.47;1.70;;;5.70;99.90;;;;;;5011162;28;20463;-59
2022/01/04 00:22:06;;;;;;;6.33;3.43;;;5.70;99.90;;;;;;5013718;28;20479;-59
2022/01/04 00:24:33;;;;;;;2.73;1.80;;;5.80;99.90;;;;;;5026679;28;20554;-59
2022/01/04 00:27:00;;;;;;;1.63;1.50;;;5.80;99.90;;;;;;5020074;28;20443;-58
2022/01/04 00:29:26;;;;;;;4.40;1.80;;;5.90;99.90;;;;;;5004503;28;21007;-59
2022/01/04 00:31:53;;;;;;;3.67;1.90;;;5.90;99.90;;;;;;5008275;28;21000;-59
2022/01/04 00:34:20;;;;;;;4.53;1.57;;;6.00;99.90;;;;;;5009183;28;20502;-56
2022/01/04 00:36:46;;;;;;;4.50;1.60;;;6.10;99.90;;;;;;5011302;28;21043;-55
2022/01/04 00:39:13;;;;;;;3.40;1.50;;;6.10;99.90;;;;;;5013657;28;20494;-55
2022/01/04 00:41:41;;;;;;;3.10;1.50;;;6.20;99.90;;;;;;5012195;28;20550;-55
2022/01/04 00:44:07;;;;;;;3.17;1.90;;;6.20;99.90;;;;;;5010943;28;20502;-54
2022/01/04 00:46:34;;;;;;;3.93;1.57;;;6.30;91.20;;;;;;5021852;28;20503;-55
2022/01/04 00:49:10;;;;;;;1.83;1.20;;;6.30;27.10;;;;;;5004764;28;20925;-55
2022/01/04 00:51:37;;;;;;;2.10;1.87;;;6.40;31.50;;;;;;5010583;28;20570;-56
2022/01/04 00:54:04;;;;;;;2.93;1.50;;;6.40;36.50;;;;;;5005451;28;20456;-56
2022/01/04 00:56:31;;;;;;;6.47;1.77;;;6.40;38.60;;;;;;5010388;28;20551;-55
2022/01/04 00:58:59;;;;;;;4.53;1.80;;;6.50;44.60;;;;;;5010569;28;20470;-55
2022/01/04 01:01:25;;;;;;;3.80;1.47;;;6.50;53.00;;;;;;5012589;28;20490;-56
2022/01/04 01:03:52;;;;;;;5.40;1.80;;;6.60;63.60;;;;;;5011191;28;20883;-54
2022/01/04 01:06:20;;;;;;;2.53;1.77;;;6.60;66.80;;;;;;5017438;28;20525;-54
2022/01/04 01:08:47;;;;;;;2.07;1.50;;;6.60;70.00;;;;;;5031370;28;20487;-55
2022/01/04 01:11:13;;;;;;;3.03;1.37;;;6.60;70.90;;;;;;5012163;28;20973;-55
2022/01/04 01:13:40;;;;;;;7.13;3.23;;;6.70;73.10;;;;;;5011536;28;20447;-55
2022/01/04 01:16:09;;;;;;;4.60;1.90;;;6.70;77.60;;;;;;5015991;28;20870;-56
2022/01/04 01:18:36;;;;;;;4.93;2.03;;;6.70;80.80;;;;;;5011636;28;20808;-55
2022/01/04 01:21:04;;;;;;;2.43;1.73;;;6.80;87.30;;;;;;5015361;28;20483;-56
2022/01/04 01:23:30;;;;;;;3.53;1.70;;;6.80;90.80;;;;;;5011350;28;20993;-55
2022/01/04 01:25:57;;;;;;;7.20;2.43;;;6.90;93.40;;;;;;5015471;28;20506;-55
2022/01/04 01:28:24;;;;;;;1.73;1.60;;;6.90;93.00;;;;;;5025183;28;20509;-56
2022/01/04 01:30:51;;;;;;;5.23;1.60;;;6.80;93.10;;;;;;5031745;28;20453;-56
2022/01/04 01:33:20;;;;;;;5.07;1.97;;;6.90;95.60;;;;;;5018240;28;20840;-55
2022/01/04 01:35:47;;;;;;;3.43;2.07;;;6.90;94.50;;;;;;5014911;28;20471;-55
2022/01/04 01:38:16;;;;;;;6.27;2.27;;;6.90;95.00;;;;;;5014334;28;20581;-56
2022/01/04 01:40:43;;;;;;;5.00;1.60;;;6.90;96.90;;;;;;5019810;28;20446;-56
2022/01/04 01:43:10;;;;;;;3.97;1.80;;;6.80;95.40;;;;;;5024405;28;20881;-56
2022/01/04 01:45:37;;;;;;;2.97;1.60;;;6.90;97.80;;;;;;5031000;28;20509;-55
2022/01/04 01:48:05;;;;;;;3.50;1.53;;;6.90;99.90;;;;;;5013146;28;20522;-55
2022/01/04 01:50:33;;;;;;;1.67;1.57;;;6.90;99.90;;;;;;5014666;28;20443;-56
2022/01/04 01:53:00;;;;;;;6.33;2.17;;;6.90;99.90;;;;;;5013589;28;20495;-62
2022/01/04 01:55:28;;;;;;;2.40;1.20;;;6.80;99.90;;;;;;5028846;28;20506;-56
2022/01/04 01:57:55;;;;;;;2.83;1.20;;;6.80;96.60;;;;;;5033683;28;20529;-55
2022/01/04 02:00:25;;;;;;;4.00;1.53;;;6.70;93.20;;;;;;5014125;28;20506;-56
2022/01/04 02:02:51;;;;;;;1.73;1.37;;;6.70;90.80;;;;;;5011536;28;20940;-55
2022/01/04 02:05:18;;;;;;;4.87;1.70;;;6.60;87.80;;;;;;5012336;28;20514;-56
2022/01/04 02:07:46;;;;;;;4.83;1.80;;;6.60;78.90;;;;;;5020192;28;20491;-55
2022/01/04 02:10:13;;;;;;;3.30;1.67;;;6.60;73.80;;;;;;5012920;28;20584;-55
2022/01/04 02:12:42;;;;;;;2.30;1.63;;;6.60;73.50;;;;;;5006650;28;20467;-55
2022/01/04 02:15:11;;;;;;;3.43;1.70;;;6.50;76.50;;;;;;5012124;28;20494;-55
2022/01/04 02:17:39;;;;;;;2.23;1.67;;;6.50;67.60;;;;;;5013858;28;20948;-55
2022/01/04 02:20:08;;;;;;;3.43;1.90;;;6.50;65.10;;;;;;5012616;28;20518;-55
2022/01/04 02:22:35;;;;;;;2.60;1.50;;;6.50;60.50;;;;;;5022471;28;20491;-56
2022/01/04 02:25:02;;;;;;;6.73;2.03;;;6.40;58.00;;;;;;5012671;28;20495;-56
2022/01/04 02:27:29;;;;;;;2.10;1.43;;;6.30;57.10;;;;;;5015353;28;20512;-56
2022/01/04 02:29:55;;;;;;;3.57;1.73;;;6.30;44.40;;;;;;5017645;28;20487;-55
2022/01/04 02:32:22;;;;;;;2.33;1.60;;;6.30;45.50;;;;;;5007925;28;21025;-56
2022/01/04 02:34:50;;;;;;;3.03;1.83;;;6.30;42.20;;;;;;5011526;28;20643;-55
2022/01/04 02:37:21;;;;;;;3.03;2.00;;;6.20;40.80;;;;;;5030659;28;20471;-55
2022/01/04 02:39:47;;;;;;;4.70;2.27;;;6.20;37.80;;;;;;5022226;28;20987;-55
2022/01/04 02:42:14;;;;;;;6.23;2.30;;;6.20;37.20;;;;;;5015970;28;20510;-55
2022/01/04 02:44:41;;;;;;;6.10;1.90;;;6.10;34.00;;;;;;5013177;28;21008;-56
2022/01/04 02:47:08;;;;;;;4.40;2.10;;;6.10;31.90;;;;;;5011367;28;20502;-59
2022/01/04 02:49:35;;;;;;;3.40;2.10;;;6.00;25.10;;;;;;5011973;28;20537;-55
2022/01/04 02:52:01;;;;;;;4.13;2.30;;;6.00;23.20;;;;;;5015469;28;20491;-55
2022/01/04 02:54:29;;;;;;;6.93;3.47;;;6.00;99.90;;;;;;5010927;28;20924;-55
2022/01/04 02:56:56;;;;;;;2.73;1.43;;;6.00;99.90;;;;;;5013223;28;20978;-55
2022/01/04 02:59:23;;;;;;;3.43;1.60;;;6.00;99.90;;;;;;5014619;28;20778;-55
2022/01/04 03:01:49;;;;;;;1.63;1.20;;;6.00;99.90;;;;;;5011418;28;20499;-55
2022/01/04 03:04:16;;;;;;;8.77;4.27;;;6.00;99.90;;;;;;5019970;28;20458;-55
2022/01/04 03:06:42;;;;;;;7.10;6.10;;;6.00;99.90;;;;;;5023953;28;20952;-56
2022/01/04 03:09:09;;;;;;;3.13;1.67;;;6.00;99.90;;;;;;5012565;28;20928;-55
2022/01/04 03:11:37;;;;;;;1.97;1.60;;;6.00;99.90;;;;;;5013705;28;20491;-55
2022/01/04 03:14:04;;;;;;;4.30;1.70;;;6.00;99.90;;;;;;5014123;28;20503;-55
2022/01/04 03:16:31;;;;;;;1.40;1.30;;;5.90;99.90;;;;;;5012483;28;20529;-55
2022/01/04 03:19:06;;;;;;;5.53;2.17;;;5.90;99.90;;;;;;5010841;28;20957;-55
2022/01/04 03:21:34;;;;;;;11.17;1.40;;;5.90;99.90;;;;;;5013794;28;20957;-55
2022/01/04 03:24:01;;;;;;;14.10;1.70;;;5.90;99.90;;;;;;5020693;28;20459;-54
2022/01/04 03:26:28;;;;;;;5.83;1.50;;;5.80;99.90;;;;;;5010583;28;20468;-55
2022/01/04 03:28:56;;;;;;;1.77;1.40;;;5.80;99.90;;;;;;5008746;28;20510;-55
2022/01/04 03:31:23;;;;;;;3.43;1.73;;;5.80;99.90;;;;;;5006837;28;20553;-55
2022/01/04 03:33:49;;;;;;;5.63;1.93;;;5.80;99.90;;;;;;5015910;28;20460;-55
2022/01/04 03:36:18;;;;;;;3.17;1.90;;;5.80;99.90;;;;;;5019372;28;20589;-54
2022/01/04 03:38:44;;;;;;;1.77;1.67;;;5.70;99.90;;;;;;5001804;28;20496;-59
2022/01/04 03:41:11;;;;;;;2.33;1.53;;;5.70;99.90;;;;;;5002791;28;20916;-59
2022/01/04 03:43:38;;;;;;;2.40;1.87;;;5.80;99.90;;;;;;5010845;28;20491;-59
2022/01/04 03:46:07;;;;;;;1.83;1.47;;;5.80;99.90;;;;;;5005586;28;20558;-59
2022/01/04 03:48:33;;;;;;;3.40;2.10;;;5.90;99.90;;;;;;5001534;28;20467;-59
2022/01/04 03:51:00;;;;;;;3.20;2.23;;;5.80;99.90;;;;;;5009871;28;20515;-58
2022/01/04 03:53:27;;;;;;;2.20;2.00;;;5.80;99.90;;;;;;5010494;28;20490;-59
2022/01/04 03:55:53;;;;;;;2.60;1.60;;;5.80;99.90;;;;;;5010880;28;20483;-59
2022/01/04 03:58:20;;;;;;;3.37;1.80;;;5.80;99.90;;;;;;5010982;28;20575;-59
2022/01/04 04:00:47;;;;;;;1.40;1.30;;;5.80;99.90;;;;;;5014863;28;20531;-59
2022/01/04 04:03:15;;;;;;;1.73;1.00;;;5.80;99.90;;;;;;5022488;28;21009;-59
2022/01/04 04:05:41;;;;;;;3.03;1.60;;;5.80;99.90;;;;;;5044867;22;20859;-48
2022/01/04 04:08:08;;;;;;;1.47;1.37;;;5.80;99.90;;;;;;5059366;28;20956;-50
2022/01/04 04:10:35;;;;;;;1.83;1.13;;;5.80;99.90;;;;;;5061301;28;20473;-48
2022/01/04 04:13:01;;;;;;;2.63;1.63;;;5.80;99.90;;;;;;5048724;28;20959;-48
2022/01/04 04:15:28;;;;;;;1.23;1.13;;;5.80;99.90;;;;;;5049006;28;21002;-49
2022/01/04 04:17:54;;;;;;;4.80;1.97;;;5.80;99.90;;;;;;5057832;28;20978;-48
2022/01/04 04:20:22;;;;;;;2.47;1.50;;;5.80;99.90;;;;;;5044902;28;20496;-48
2022/01/04 04:22:49;;;;;;;3.33;1.93;;;5.80;99.90;;;;;;5054053;28;20493;-49
2022/01/04 04:25:15;;;;;;;2.50;1.50;;;5.80;99.90;;;;;;5051745;28;20521;-49
2022/01/04 04:27:42;;;;;;;2.73;1.70;;;5.80;99.90;;;;;;5061647;28;20522;-49
2022/01/04 04:30:10;;;;;;;2.83;1.60;;;5.70;99.90;;;;;;5046563;28;20513;-49
2022/01/04 04:32:37;;;;;;;2.50;1.50;;;5.70;99.90;;;;;;5057955;28;20486;-49
2022/01/04 04:35:04;;;;;;;1.40;1.30;;;5.70;99.90;;;;;;5053219;28;20924;-49
2022/01/04 04:37:32;;;;;;;2.20;1.70;;;5.60;99.90;;;;;;5062035;28;20484;-49
2022/01/04 04:39:59;;;;;;;2.70;1.43;;;5.60;99.90;;;;;;5055123;28;20485;-49
2022/01/04 04:42:25;;;;;;;2.40;1.87;;;5.50;99.90;;;;;;5058680;28;20489;-49
2022/01/04 04:44:52;;;;;;;3.23;1.80;;;5.50;99.90;;;;;;5049940;28;20857;-49
2022/01/04 04:47:18;;;;;;;3.00;1.83;;;5.50;99.90;;;;;;5054014;28;20493;-49
2022/01/04 04:49:45;;;;;;;2.13;1.67;;;5.50;99.90;;;;;;5056687;28;20910;-49
2022/01/04 04:52:12;;;;;;;3.17;1.37;;;5.40;99.90;;;;;;5057859;28;20970;-49
2022/01/04 04:54:40;;;;;;;2.13;1.27;;;5.40;99.90;;;;;;5046630;28;20501;-49
2022/01/04 04:57:06;;;;;;;2.30;1.33;;;5.40;1.40;;;;;;5059507;28;20477;-49
2022/01/04 04:59:33;;;;;;;2.90;1.73;;;5.40;99.90;;;;;;5051124;28;21849;-48
2022/01/04 05:01:59;;;;;;;1.70;1.10;;;5.40;99.90;;;;;;5059008;28;20459;-50
2022/01/04 05:04:26;;;;;;;2.27;1.40;;;5.40;99.90;;;;;;5059777;28;20492;-49
2022/01/04 05:06:53;;;;;;;1.50;1.10;;;5.40;99.90;;;;;;5063446;28;20512;-50
2022/01/04 05:09:20;;;;;;;1.63;1.50;;;5.40;99.90;;;;;;5053490;28;20549;-49
2022/01/04 05:11:48;;;;;;;1.57;1.27;;;5.40;99.90;;;;;;5056541;28;20442;-49
2022/01/04 05:14:14;;;;;;;5.23;1.63;;;5.40;99.90;;;;;;5053151;28;20466;-51
2022/01/04 05:16:41;;;;;;;2.40;1.20;;;5.40;99.90;;;;;;5054709;28;20503;-49
2022/01/04 05:19:07;;;;;;;1.40;1.40;;;5.40;99.90;;;;;;5042173;28;20501;-51
2022/01/04 05:21:34;;;;;;;3.23;1.80;;;5.40;99.90;;;;;;5046504;28;20485;-49
2022/01/04 05:24:00;;;;;;;1.50;1.40;;;5.40;99.90;;;;;;5053925;28;20485;-50
2022/01/04 05:26:27;;;;;;;1.70;1.30;;;5.40;99.90;;;;;;5060641;28;20517;-49
2022/01/04 05:28:55;;;;;;;4.50;2.00;;;5.40;99.90;;;;;;5052792;28;20896;-50
2022/01/04 05:31:22;;;;;;;1.20;1.00;;;5.30;99.90;;;;;;5049225;28;20513;-49
2022/01/04 05:33:48;;;;;;;2.13;1.93;;;5.30;99.90;;;;;;5061298;28;20878;-50
2022/01/04 05:36:15;;;;;;;2.20;1.30;;;5.30;99.90;;;;;;5053367;28;20521;-48
2022/01/04 05:38:41;;;;;;;4.33;1.50;;;5.30;99.90;;;;;;5047920;28;20493;-49
2022/01/04 05:41:08;;;;;;;3.17;1.73;;;5.30;99.90;;;;;;5051317;28;20516;-49
2022/01/04 05:43:35;;;;;;;3.07;1.80;;;5.30;99.90;;;;;;5061998;28;20466;-49
2022/01/04 05:46:03;;;;;;;1.90;1.67;;;5.30;99.90;;;;;;5047636;28;20486;-49
2022/01/04 05:48:29;;;;;;;1.90;1.67;;;5.30;99.90;;;;;;5041352;28;21005;-50
2022/01/04 05:50:56;;;;;;;2.57;1.30;;;5.40;99.90;;;;;;5044373;28;21042;-50
2022/01/04 05:53:22;;;;;;;2.97;1.40;;;5.30;99.90;;;;;;5045757;28;20489;-49
2022/01/04 05:55:49;;;;;;;1.47;1.37;;;5.40;99.90;;;;;;5047706;28;20986;-49
2022/01/04 05:58:15;;;;;;;7.40;1.00;;;5.40;99.90;;;;;;5048032;28;20580;-49
2022/01/04 06:00:42;;;;;;;1.83;1.17;;;5.40;99.10;;;;;;5043388;28;20481;-50
2022/01/04 06:03:10;;;;;;;1.83;1.40;;;5.40;95.00;;;;;;5053975;28;20516;-49
2022/01/04 06:05:37;;;;;;;1.10;1.00;;;5.50;89.40;;;;;;5050684;28;20907;-49
2022/01/04 06:08:04;;;;;;;2.23;1.47;;;5.40;99.10;;;;;;5050342;28;20464;-49
2022/01/04 06:10:37;;;;;;;2.53;1.57;;;5.40;99.90;;;;;;5046969;28;21002;-49
2022/01/04 06:15:47;;;;;;;1.90;1.30;;;5.50;99.90;;;;;;5052551;28;20480;-49
2022/01/04 06:18:15;;;;;;;1.87;1.30;;;5.50;94.70;;;;;;5051421;28;22391;-49
2022/01/04 06:20:43;;;;;;;2.83;1.57;;;5.50;94.90;;;;;;5051379;28;20966;-48
2022/01/04 06:23:09;;;;;;;2.13;1.40;;;5.50;99.90;;;;;;5052126;28;20874;-50
2022/01/04 06:25:36;;;;;;;1.43;1.33;;;5.50;99.90;;;;;;5046665;28;20498;-50
2022/01/04 06:28:02;;;;;;;3.07;1.50;;;5.50;93.50;;;;;;5048447;28;20525;-48
2022/01/04 06:30:29;;;;;;;1.40;1.30;;;5.50;97.70;;;;;;5043200;28;20517;-49
2022/01/04 06:32:55;;;;;;;6.20;2.40;;;5.60;98.60;;;;;;5047639;28;20497;-49
2022/01/04 06:35:25;;;;;;;2.27;1.90;;;5.50;99.90;;;;;;5046250;28;20908;-49
2022/01/04 06:37:52;;;;;;;3.70;2.03;;;5.50;99.90;;;;;;5042539;28;20460;-49
2022/01/04 06:40:18;;;;;;;4.37;1.90;;;5.50;99.90;;;;;;5049971;28;20500;-50
2022/01/04 06:42:45;;;;;;;1.83;1.73;;;5.60;98.40;;;;;;5057849;28;20950;-50
2022/01/04 06:45:13;;;;;;;3.67;1.77;;;5.60;97.70;;;;;;5048721;28;20567;-50
2022/01/04 06:47:39;;;;;;;2.43;1.87;;;5.60;91.60;;;;;;5046603;28;20545;-50
2022/01/04 06:50:07;;;;;;;2.70;1.73;;;5.60;97.20;;;;;;5044056;28;20514;-50
2022/01/04 06:52:35;;;;;;;6.13;1.50;;;5.60;93.20;;;;;;5060524;28;20551;-49
2022/01/04 06:55:02;;;;;;;4.77;1.63;;;5.70;90.30;;;;;;5048912;28;20513;-51
2022/01/04 06:57:29;;;;;;;1.40;1.17;;;5.70;83.70;;;;;;5049505;28;20450;-49
2022/01/04 06:59:55;;;;;;;2.93;2.30;;;5.70;85.80;;;;;;5053830;28;20495;-50
2022/01/04 07:02:22;;;;;;;4.90;2.10;;;5.80;82.60;;;;;;5060582;28;20457;-49
2022/01/04 07:04:48;;;;;;;4.50;2.13;;;5.80;84.40;;;;;;5050275;28;20880;-49
2022/01/04 07:07:15;;;;;;;3.17;2.00;;;5.80;87.10;;;;;;5044784;28;21037;-49
2022/01/04 07:09:43;;;;;;;3.17;2.10;;;5.80;87.10;;;;;;5048095;28;20518;-50
2022/01/04 07:12:10;;;;;;;3.73;2.10;;;5.80;88.20;;;;;;5059240;28;20492;-50
2022/01/04 07:14:36;;;;;;;6.67;2.43;;;5.90;89.70;;;;;;5056034;28;20862;-49
2022/01/04 07:17:03;;;;;;;6.30;1.93;;;5.80;91.60;;;;;;5050052;28;20509;-50
2022/01/04 07:19:30;;;;;;;2.50;2.27;;;5.80;94.70;;;;;;5050687;28;20560;-50
2022/01/04 07:21:57;;;;;;;4.07;2.30;;;5.90;93.00;;;;;;5050495;28;20489;-49
2022/01/04 07:24:25;;;;;;;2.60;2.10;;;5.90;93.50;;;;;;5043098;28;20952;-50
2022/01/04 07:26:53;;;;;;;2.23;2.03;;;5.90;95.00;;;;;;5050519;28;20488;-49
2022/01/04 07:29:19;;;;;;;2.40;2.20;;;5.80;98.40;;;;;;5048624;28;20898;-49
2022/01/04 07:31:46;;;;;;;3.10;2.20;;;5.80;99.20;;;;;;5050131;28;20920;-49
2022/01/04 07:34:12;;;;;;;1.73;1.70;;;5.80;97.50;;;;;;5045269;28;20469;-48
2022/01/04 07:36:39;;;;;;;2.40;2.20;;;5.80;96.90;;;;;;5050049;28;20536;-48
2022/01/04 07:39:06;;;;;;;6.80;4.20;;;5.90;93.80;;;;;;5048878;28;20465;-50
2022/01/04 07:41:33;;;;;;;6.70;4.20;;;5.90;89.20;;;;;;5050080;28;20477;-49
2022/01/04 07:44:01;;;;;;;7.53;5.63;;;5.90;88.70;;;;;;5047799;28;20535;-51
2022/01/04 07:46:27;;;;;;;7.50;6.60;;;5.90;90.50;;;;;;5045932;28;20583;-49
2022/01/04 07:48:54;;;;;;;6.43;4.53;;;6.00;91.70;;;;;;5046980;28;20472;-50
2022/01/04 07:51:21;;;;;;;4.50;3.60;;;6.00;94.80;;;;;;5047843;28;20489;-49
2022/01/04 07:53:47;;;;;;;4.17;2.93;;;6.00;91.40;;;;;;5059721;28;20993;-49
2022/01/04 07:56:14;;;;;;;2.20;2.10;;;6.00;90.40;;;;;;5046831;28;20916;-50
2022/01/04 07:58:41;;;;;;;2.53;2.17;;;6.00;88.70;;;;;;5047349;28;20509;-49
2022/01/04 08:01:09;;;;;;;1.90;1.80;;;6.00;87.30;;;;;;5049831;28;20489;-50
2022/01/04 08:03:35;;;;;;;2.10;1.90;;;6.10;86.10;;;;;;5059359;28;20470;-49
2022/01/04 08:06:02;;;;;;;8.40;2.60;;;6.10;88.70;;;;;;5048280;28;20539;-48
2022/01/04 08:08:28;;;;;;;3.57;2.77;;;6.10;90.50;;;;;;5045393;28;20513;-51
2022/01/04 08:10:55;;;;;;;2.20;1.70;;;6.20;87.10;;;;;;5045127;28;20994;-49
2022/01/04 08:13:22;;;;;;;2.10;1.90;;;6.20;88.20;;;;;;5050199;28;20481;-50
2022/01/04 08:15:48;;;;;;;3.90;2.37;;;6.20;92.00;;;;;;5043690;28;20477;-49
2022/01/04 08:18:16;;;;;;;1.90;1.80;;;6.20;91.50;;;;;;5053148;28;20465;-49
2022/01/04 08:20:43;;;;;;;2.97;2.03;;;6.30;91.50;;;;;;5045880;28;20481;-50
2022/01/04 08:23:09;;;;;;;4.07;1.97;;;6.30;90.50;;;;;;5045477;28;20523;-50
2022/01/04 08:25:37;;;;;;;1.93;1.83;;;6.30;95.20;;;;;;5050439;28;20923;-50
2022/01/04 08:28:04;;;;;;;3.47;2.30;;;6.40;98.50;;;;;;5052360;28;20459;-49
2022/01/04 08:30:31;;;;;;;2.57;2.37;;;6.40;99.90;;;;;;5043223;28;20850;-49
2022/01/04 08:32:58;;;;;;;4.93;2.17;;;6.40;99.90;;;;;;5045845;28;21009;-49
2022/01/04 08:35:26;;;;;;;2.07;1.97;;;6.40;99.90;;;;;;5046073;28;20539;-50
2022/01/04 08:37:53;;;;;;;2.20;2.10;;;6.40;99.90;;;;;;5046874;28;20890;-50
2022/01/04 08:40:19;;;;;;;3.90;2.43;;;6.50;99.90;;;;;;5050373;28;20501;-51
2022/01/04 08:42:46;;;;;;;2.23;2.10;;;6.50;99.90;;;;;;5047009;28;20526;-49
2022/01/04 08:45:12;;;;;;;3.77;2.53;;;6.50;99.90;;;;;;5045781;28;20528;-49
2022/01/04 08:47:39;;;;;;;2.93;2.50;;;6.50;99.90;;;;;;5044216;28;20502;-49
2022/01/04 08:50:08;;;;;;;3.33;3.03;;;6.60;99.90;;;;;;5051235;28;20934;-49
2022/01/04 08:52:36;;;;;;;4.13;3.50;;;6.60;99.90;;;;;;5052144;28;20579;-51
2022/01/04 08:55:04;;;;;;;7.10;4.20;;;6.60;99.90;;;;;;5044787;28;20518;-50
2022/01/04 08:57:30;;;;;;;2.30;2.10;;;6.60;99.90;;;;;;5046019;28;20557;-48
2022/01/04 08:59:57;;;;;;;3.20;3.00;;;6.60;99.90;;;;;;5041106;28;20486;-49
2022/01/04 09:02:24;;;;;;;6.13;4.13;;;6.70;99.90;;;;;;5044906;28;20457;-49
2022/01/04 09:04:51;;;;;;;3.80;2.63;;;6.70;99.90;;;;;;5046297;28;20805;-50
2022/01/04 09:07:18;;;;;;;3.23;2.93;;;6.80;99.90;;;;;;5060806;28;21052;-49
2022/01/04 09:09:49;;;;;;;2.67;2.47;;;6.80;99.90;;;;;;5053415;28;20985;-49
2022/01/04 09:12:16;;;;;;;2.93;2.20;;;6.80;99.90;;;;;;5046258;28;20970;-48
2022/01/04 09:14:55;;;;;;;2.80;2.53;;;6.80;99.90;;;;;;5051621;28;20456;-55
2022/01/04 09:20:10;;;;;;;2.57;2.10;;;6.80;99.90;;;;;;5044908;28;20990;-49
2022/01/04 09:22:38;;;;;;;2.50;2.13;;;6.80;99.90;;;;;;5048879;28;20487;-50
2022/01/04 09:25:07;;;;;;;2.50;2.30;;;6.90;99.90;;;;;;5050081;28;20551;-49
2022/01/04 09:27:34;;;;;;;2.97;2.57;;;6.90;99.90;;;;;;5049884;28;20550;-50
2022/01/04 09:30:03;;;;;;;3.30;3.00;;;6.90;99.90;;;;;;5045327;28;20555;-50
2022/01/04 09:32:31;;;;;;;3.20;2.90;;;6.90;99.90;;;;;;5060521;28;20482;-50
2022/01/04 09:34:57;;;;;;;6.20;3.37;;;6.90;99.90;;;;;;5052505;28;20454;-50
2022/01/04 09:37:24;;;;;;;3.07;2.87;;;6.90;99.90;;;;;;5051478;28;20461;-50
2022/01/04 09:39:51;;;;;;;3.60;2.70;;;6.90;99.90;;;;;;5046091;28;20494;-50
2022/01/04 09:42:20;;;;;;;2.53;2.33;;;6.90;99.90;;;;;;5049828;28;20454;-50
2022/01/04 09:44:49;;;;;;;3.87;3.07;;;6.90;99.90;;;;;;5056312;28;20945;-50
2022/01/04 09:47:15;;;;;;;4.77;2.10;;;7.00;99.90;;;;;;5049878;28;20552;-50
2022/01/04 09:49:42;;;;;;;3.23;2.50;;;7.00;99.90;;;;;;5045577;28;20501;-49
2022/01/04 09:52:09;;;;;;;2.37;2.10;;;7.00;99.90;;;;;;5055847;28;20517;-49
2022/01/04 09:54:39;;;;;;;3.90;2.23;;;7.00;99.90;;;;;;5046397;28;20835;-48
2022/01/04 09:57:06;;;;;;;2.50;2.30;;;7.00;99.90;;;;;;5045244;28;20462;-50
2022/01/04 09:59:33;;;;;;;2.43;1.80;;;7.00;99.90;;;;;;5048931;28;20508;-49
2022/01/04 10:02:13;;;;;;;6.93;1.80;;;7.00;99.90;;;;;;5046449;28;20501;-49
2022/01/04 10:04:39;;;;;;;2.60;2.40;;;7.00;99.90;;;;;;5045773;28;20593;-51
2022/01/04 10:07:08;;;;;;;2.63;2.13;;;7.00;99.90;;;;;;5043741;22;20526;-48
2022/01/04 10:09:37;;;;;;;2.50;2.30;;;7.00;99.90;;;;;;5025208;28;20947;-48
2022/01/04 10:12:05;;;;;;;6.20;2.90;;;7.00;99.90;;;;;;5022800;28;20510;-48
2022/01/04 10:14:38;;;;;;;6.23;4.37;;;7.00;99.90;;;;;;5021393;28;20462;-49
2022/01/04 10:17:07;;;;;;;2.60;2.40;;;7.10;99.90;;;;;;5028845;28;20572;-49
2022/01/04 10:19:35;;;;;;;2.57;2.37;;;7.00;94.50;;;;;;5021630;28;20975;-47
2022/01/04 10:22:12;;;;;;;2.37;2.17;;;7.00;22.50;;;;;;5025191;28;20470;-49
2022/01/04 10:24:39;;;;;;;6.53;2.27;;;7.00;79.70;;;;;;5021630;28;20494;-49
2022/01/04 10:27:25;;;;;;;2.83;1.80;;;7.10;88.20;;;;;;5028845;28;20510;-48
2022/01/04 10:30:12;;;;;;;1.77;1.67;;;7.10;99.90;;;;;;5024016;28;20494;-47
2022/01/04 10:32:47;;;;;;;2.23;2.00;;;7.10;99.90;;;;;;5029574;28;20513;-48
2022/01/04 10:35:40;;;;;;;3.03;2.23;;;7.00;99.90;;;;;;5022775;28;20891;-49
2022/01/04 10:38:14;;;;;;;2.23;2.03;;;7.10;99.90;;;;;;5026240;28;20459;-48
2022/01/04 10:40:42;;;;;;;1.83;1.37;;;7.10;99.90;;;;;;5023094;28;20490;-48
2022/01/04 10:43:12;;;;;;;1.63;1.53;;;7.00;99.90;;;;;;5022945;28;20498;-48
2022/01/04 10:45:42;;;;;;;1.83;1.73;;;7.10;99.90;;;;;;5027599;28;20562;-48
2022/01/04 10:48:18;;;;;;;1.90;1.80;;;7.10;99.90;;;;;;5019968;28;20499;-48
2022/01/04 10:50:46;;;;;;;2.50;2.33;;;7.00;99.90;;;;;;5022386;28;20455;-48
2022/01/04 10:53:19;;;;;;;2.43;2.23;;;7.00;99.90;;;;;;5020904;28;20490;-46
2022/01/04 10:55:47;;;;;;;2.47;2.27;;;7.00;99.90;;;;;;5024234;28;20510;-47
2022/01/04 10:58:21;;;;;;;2.90;1.67;;;7.00;99.90;;;;;;5025688;28;20455;-47
2022/01/04 11:00:53;;;;;;;2.13;1.80;;;7.00;99.90;;;;;;5020813;28;20454;-47
2022/01/04 11:03:24;;;;;;;2.37;1.60;;;6.90;99.90;;;;;;5016263;28;20538;-47
2022/01/04 11:05:54;;;;;;;1.57;1.47;;;6.90;99.90;;;;;;5018611;28;21018;-48
2022/01/04 11:08:20;;;;;;;1.40;1.40;;;6.90;99.90;;;;;;5019543;28;20962;-47
2022/01/04 11:10:49;;;;;;;1.53;1.33;;;6.90;99.90;;;;;;5024443;28;20546;-47
2022/01/04 11:13:16;;;;;;;1.70;1.27;;;6.90;99.90;;;;;;5018388;28;20530;-48
2022/01/04 11:15:43;;;;;;;2.30;1.50;;;6.80;99.90;;;;;;5024633;28;20522;-47
2022/01/04 11:18:12;;;;;;;3.70;1.47;;;6.80;99.90;;;;;;5031497;28;20498;-47
2022/01/04 11:20:40;;;;;;;4.00;1.10;;;6.80;99.90;;;;;;5025180;28;20526;-47
2022/01/04 11:23:07;;;;;;;3.23;1.40;;;6.80;99.90;;;;;;5025281;28;20549;-47
2022/01/04 11:25:34;;;;;;;1.50;1.40;;;6.80;99.90;;;;;;5020255;28;20533;-52
2022/01/04 11:28:01;;;;;;;1.60;1.50;;;6.70;99.90;;;;;;5024503;28;20514;-48
2022/01/04 11:30:36;;;;;;;1.30;1.30;;;6.80;99.90;;;;;;5023388;28;20466;-49
2022/01/04 11:33:08;;;;;;;2.40;1.57;;;6.70;99.90;;;;;;5024607;28;20532;-48
2022/01/04 11:35:36;;;;;;;1.67;1.57;;;6.70;99.90;;;;;;5027521;28;20486;-47
2022/01/04 11:38:02;;;;;;;1.73;1.50;;;6.70;99.90;;;;;;5022172;28;20505;-47
2022/01/04 11:40:32;;;;;;;1.67;1.53;;;6.80;99.90;;;;;;5027358;28;20498;-48
2022/01/04 11:42:59;;;;;;;3.80;1.70;;;6.70;99.90;;;;;;5023952;28;20944;-48
2022/01/04 11:45:39;;;;;;;1.40;1.30;;;6.80;99.70;;;;;;5020305;28;20522;-48
2022/01/04 11:48:28;;;;;;;1.90;1.80;;;6.80;99.90;;;;;;5027575;28;20470;-48
2022/01/04 11:50:57;;;;;;;2.13;1.90;;;6.80;99.90;;;;;;5019109;28;20476;-48
2022/01/04 11:53:24;;;;;;;1.67;1.57;;;6.80;98.90;;;;;;5029730;28;20510;-48
2022/01/04 11:55:52;;;;;;;1.67;1.20;;;6.80;97.80;;;;;;5028106;28;21004;-46
2022/01/04 11:58:21;;;;;;;1.17;1.07;;;6.80;96.50;;;;;;5022833;28;20455;-48
2022/01/04 12:01:00;;;;;;;2.30;1.40;;;6.80;93.60;;;;;;5023776;28;20458;-48
2022/01/04 12:03:39;;;;;;;2.13;1.40;;;6.80;93.10;;;;;;5024478;28;20465;-49
2022/01/04 12:06:07;;;;;;;1.30;1.20;;;6.80;88.70;;;;;;5024245;28;20525;-48
2022/01/04 12:08:35;;;;;;;1.13;1.03;;;6.80;90.50;;;;;;5031096;28;20910;-48
2022/01/04 12:11:02;;;;;;;2.33;1.70;;;6.80;88.20;;;;;;5024766;28;20467;-48
2022/01/04 12:13:48;;;;;;;2.00;1.80;;;6.80;93.30;;;;;;5025000;28;20482;-49
2022/01/04 12:16:15;;;;;;;2.00;1.90;;;6.80;90.10;;;;;;5028180;28;20541;-47
2022/01/04 12:19:00;;;;;;;1.40;1.40;;;6.80;89.40;;;;;;5030471;28;20490;-49
2022/01/04 12:21:44;;;;;;;4.73;1.80;;;6.90;87.70;;;;;;5030575;28;20581;-47
2022/01/04 12:24:17;;;;;;;1.53;1.43;;;6.90;83.30;;;;;;5031958;28;20466;-47
2022/01/04 12:26:44;;;;;;;2.33;2.13;;;6.90;81.80;;;;;;5027289;28;20479;-48
2022/01/04 12:29:25;;;;;;;3.53;2.37;;;6.90;82.20;;;;;;5019551;28;20483;-48
2022/01/04 12:31:55;;;;;;;1.80;1.70;;;6.90;83.30;;;;;;5030565;28;20536;-48
2022/01/04 12:34:31;;;;;;;1.60;1.50;;;6.80;84.70;;;;;;5027152;28;20501;-47
2022/01/04 12:37:00;;;;;;;2.43;1.63;;;6.90;81.40;;;;;;5030099;28;20589;-47
2022/01/04 12:39:34;;;;;;;6.07;1.50;;;6.90;79.90;;;;;;5030189;28;20948;-47
2022/01/04 12:42:00;;;;;;;1.43;1.33;;;6.90;82.90;;;;;;5023972;28;20487;-49
2022/01/04 12:44:29;;;;;;;1.30;1.30;;;6.90;82.60;;;;;;5029670;28;20446;-48
2022/01/04 12:46:57;;;;;;;1.50;1.40;;;6.90;80.60;;;;;;5030635;28;20520;-47
2022/01/04 12:49:25;;;;;;;3.63;1.43;;;6.90;80.40;;;;;;5028679;28;20557;-48
2022/01/04 12:51:54;;;;;;;1.90;1.80;;;6.90;78.30;;;;;;5024990;28;20490;-48
2022/01/04 12:54:23;;;;;;;2.30;1.60;;;6.90;79.20;;;;;;5027202;28;20458;-48
2022/01/04 12:56:52;;;;;;;3.13;1.53;;;6.90;79.10;;;;;;5021680;28;20479;-48
2022/01/04 12:59:30;;;;;;;2.23;1.60;;;6.90;79.20;;;;;;5028209;28;20459;-47
2022/01/04 13:01:58;;;;;;;2.40;1.67;;;6.90;83.50;;;;;;5024524;28;20455;-48
2022/01/04 13:04:27;;;;;;;6.63;2.00;;;6.90;74.80;;;;;;5024578;28;20975;-47
2022/01/04 13:06:55;;;;;;;2.30;2.10;;;6.90;64.30;;;;;;5029092;28;20522;-48
2022/01/04 13:09:24;;;;;;;2.60;2.40;;;6.90;69.00;;;;;;5030243;28;20494;-47